sensor_id;sensor_type;location;lat;lon;timestamp;temperature;humidity
18575;DHT22;9417;16.484;102.872;2022-12-18T00:01:50;15.80;67.90
18575;DHT22;9417;16.484;102.872;2022-12-18T00:03:58;15.80;67.70
18575;DHT22;9417;16.484;102.872;2022-12-18T00:06:06;15.80;67.80
18575;DHT22;9417;16.484;102.872;2022-12-18T00:08:13;15.80;67.90
18575;DHT22;9417;16.484;102.872;2022-12-18T00:10:20;15.80;67.90
18575;DHT22;9417;16.484;102.872;2022-12-18T00:12:27;15.80;68.20
18575;DHT22;9417;16.484;102.872;2022-12-18T00:14:36;15.80;67.50
18575;DHT22;9417;16.484;102.872;2022-12-18T00:16:45;15.90;68.00
18575;DHT22;9417;16.484;102.872;2022-12-18T00:18:55;15.80;67.20
18575;DHT22;9417;16.484;102.872;2022-12-18T00:21:04;15.90;66.80
18575;DHT22;9417;16.484;102.872;2022-12-18T00:23:12;15.90;66.60
18575;DHT22;9417;16.484;102.872;2022-12-18T00:25:20;16.00;66.30
18575;DHT22;9417;16.484;102.872;2022-12-18T00:27:27;16.00;67.10
18575;DHT22;9417;16.484;102.872;2022-12-18T00:29:39;16.00;66.20
18575;DHT22;9417;16.484;102.872;2022-12-18T00:31:46;16.10;65.50
18575;DHT22;9417;16.484;102.872;2022-12-18T00:33:55;16.10;65.90
18575;DHT22;9417;16.484;102.872;2022-12-18T00:36:02;16.20;65.50
18575;DHT22;9417;16.484;102.872;2022-12-18T00:38:09;16.20;66.10
18575;DHT22;9417;16.484;102.872;2022-12-18T00:40:17;16.20;65.50
18575;DHT22;9417;16.484;102.872;2022-12-18T00:42:24;16.30;65.50
18575;DHT22;9417;16.484;102.872;2022-12-18T00:44:49;16.30;64.50
18575;DHT22;9417;16.484;102.872;2022-12-18T00:46:56;16.40;64.70
18575;DHT22;9417;16.484;102.872;2022-12-18T00:49:03;16.40;64.10
18575;DHT22;9417;16.484;102.872;2022-12-18T00:51:11;16.50;63.40
18575;DHT22;9417;16.484;102.872;2022-12-18T00:53:18;16.50;63.00
18575;DHT22;9417;16.484;102.872;2022-12-18T00:55:25;16.60;62.30
18575;DHT22;9417;16.484;102.872;2022-12-18T00:57:33;16.60;63.10
18575;DHT22;9417;16.484;102.872;2022-12-18T00:59:40;16.70;62.20
18575;DHT22;9417;16.484;102.872;2022-12-18T01:01:48;16.80;63.80
18575;DHT22;9417;16.484;102.872;2022-12-18T01:03:57;16.80;62.80
18575;DHT22;9417;16.484;102.872;2022-12-18T01:06:07;16.80;62.00
18575;DHT22;9417;16.484;102.872;2022-12-18T01:08:14;16.90;61.90
18575;DHT22;9417;16.484;102.872;2022-12-18T01:10:22;17.00;61.90
18575;DHT22;9417;16.484;102.872;2022-12-18T01:12:33;17.10;61.30
18575;DHT22;9417;16.484;102.872;2022-12-18T01:14:40;17.10;60.90
18575;DHT22;9417;16.484;102.872;2022-12-18T01:16:49;17.20;62.10
18575;DHT22;9417;16.484;102.872;2022-12-18T01:18:56;17.20;59.60
18575;DHT22;9417;16.484;102.872;2022-12-18T01:21:07;17.30;59.50
18575;DHT22;9417;16.484;102.872;2022-12-18T01:23:14;17.30;59.90
18575;DHT22;9417;16.484;102.872;2022-12-18T01:25:21;17.40;60.40
18575;DHT22;9417;16.484;102.872;2022-12-18T01:27:29;17.40;60.40
18575;DHT22;9417;16.484;102.872;2022-12-18T01:29:39;17.50;58.40
18575;DHT22;9417;16.484;102.872;2022-12-18T01:31:48;17.50;58.30
18575;DHT22;9417;16.484;102.872;2022-12-18T01:33:56;17.60;56.70
18575;DHT22;9417;16.484;102.872;2022-12-18T01:36:04;17.70;56.80
18575;DHT22;9417;16.484;102.872;2022-12-18T01:38:11;17.70;56.20
18575;DHT22;9417;16.484;102.872;2022-12-18T01:40:18;17.80;57.10
18575;DHT22;9417;16.484;102.872;2022-12-18T01:42:27;17.90;55.70
18575;DHT22;9417;16.484;102.872;2022-12-18T01:44:55;17.90;56.40
18575;DHT22;9417;16.484;102.872;2022-12-18T01:47:05;18.00;55.00
18575;DHT22;9417;16.484;102.872;2022-12-18T01:49:12;18.10;55.30
18575;DHT22;9417;16.484;102.872;2022-12-18T01:51:20;18.10;54.90
18575;DHT22;9417;16.484;102.872;2022-12-18T01:53:27;18.20;54.80
18575;DHT22;9417;16.484;102.872;2022-12-18T01:55:40;18.20;53.50
18575;DHT22;9417;16.484;102.872;2022-12-18T01:57:50;18.30;52.80
18575;DHT22;9417;16.484;102.872;2022-12-18T02:00:03;18.30;52.70
18575;DHT22;9417;16.484;102.872;2022-12-18T02:02:17;18.30;52.00
18575;DHT22;9417;16.484;102.872;2022-12-18T02:04:26;18.30;51.70
18575;DHT22;9417;16.484;102.872;2022-12-18T02:06:36;18.40;51.90
18575;DHT22;9417;16.484;102.872;2022-12-18T02:08:57;18.50;52.40
18575;DHT22;9417;16.484;102.872;2022-12-18T02:11:10;18.50;51.70
18575;DHT22;9417;16.484;102.872;2022-12-18T02:13:27;18.60;50.30
18575;DHT22;9417;16.484;102.872;2022-12-18T02:15:40;18.70;51.20
18575;DHT22;9417;16.484;102.872;2022-12-18T02:17:56;18.80;50.40
18575;DHT22;9417;16.484;102.872;2022-12-18T02:20:11;18.80;50.80
18575;DHT22;9417;16.484;102.872;2022-12-18T02:22:26;18.90;49.90
18575;DHT22;9417;16.484;102.872;2022-12-18T02:24:44;18.90;48.90
18575;DHT22;9417;16.484;102.872;2022-12-18T02:26:57;19.00;48.50
18575;DHT22;9417;16.484;102.872;2022-12-18T02:29:15;19.00;47.80
18575;DHT22;9417;16.484;102.872;2022-12-18T02:31:25;19.10;47.90
18575;DHT22;9417;16.484;102.872;2022-12-18T02:33:34;19.10;47.70
18575;DHT22;9417;16.484;102.872;2022-12-18T02:35:45;19.10;47.90
18575;DHT22;9417;16.484;102.872;2022-12-18T02:37:53;19.20;48.20
18575;DHT22;9417;16.484;102.872;2022-12-18T02:40:05;19.30;47.70
18575;DHT22;9417;16.484;102.872;2022-12-18T02:42:15;19.30;46.80
18575;DHT22;9417;16.484;102.872;2022-12-18T02:44:24;19.30;47.80
18575;DHT22;9417;16.484;102.872;2022-12-18T02:46:33;19.40;47.70
18575;DHT22;9417;16.484;102.872;2022-12-18T02:48:46;19.50;47.30
18575;DHT22;9417;16.484;102.872;2022-12-18T02:51:00;19.50;46.60
18575;DHT22;9417;16.484;102.872;2022-12-18T02:53:17;19.50;46.40
18575;DHT22;9417;16.484;102.872;2022-12-18T02:55:36;19.50;45.70
18575;DHT22;9417;16.484;102.872;2022-12-18T02:57:55;19.60;46.00
18575;DHT22;9417;16.484;102.872;2022-12-18T03:00:11;19.60;46.40
18575;DHT22;9417;16.484;102.872;2022-12-18T03:02:23;19.60;45.20
18575;DHT22;9417;16.484;102.872;2022-12-18T03:04:36;19.70;46.20
18575;DHT22;9417;16.484;102.872;2022-12-18T03:06:49;19.80;45.20
18575;DHT22;9417;16.484;102.872;2022-12-18T03:09:00;19.90;46.00
18575;DHT22;9417;16.484;102.872;2022-12-18T03:11:09;19.90;44.00
18575;DHT22;9417;16.484;102.872;2022-12-18T03:13:23;19.90;44.80
18575;DHT22;9417;16.484;102.872;2022-12-18T03:15:36;20.10;45.10
18575;DHT22;9417;16.484;102.872;2022-12-18T03:17:48;20.10;44.30
18575;DHT22;9417;16.484;102.872;2022-12-18T03:20:05;20.10;44.40
18575;DHT22;9417;16.484;102.872;2022-12-18T03:22:14;20.20;44.80
18575;DHT22;9417;16.484;102.872;2022-12-18T03:24:27;20.40;45.40
18575;DHT22;9417;16.484;102.872;2022-12-18T03:26:38;20.40;44.70
18575;DHT22;9417;16.484;102.872;2022-12-18T03:28:54;20.40;44.30
18575;DHT22;9417;16.484;102.872;2022-12-18T03:31:05;20.50;44.90
18575;DHT22;9417;16.484;102.872;2022-12-18T03:33:18;20.50;42.70
18575;DHT22;9417;16.484;102.872;2022-12-18T03:35:29;20.50;44.60
18575;DHT22;9417;16.484;102.872;2022-12-18T03:37:40;20.50;43.70
18575;DHT22;9417;16.484;102.872;2022-12-18T03:39:48;20.60;43.90
18575;DHT22;9417;16.484;102.872;2022-12-18T03:42:00;20.70;43.10
18575;DHT22;9417;16.484;102.872;2022-12-18T03:44:17;20.70;43.10
18575;DHT22;9417;16.484;102.872;2022-12-18T03:46:30;20.70;42.60
18575;DHT22;9417;16.484;102.872;2022-12-18T03:48:43;20.70;43.20
18575;DHT22;9417;16.484;102.872;2022-12-18T03:50:57;20.70;43.40
18575;DHT22;9417;16.484;102.872;2022-12-18T03:53:12;20.80;42.60
18575;DHT22;9417;16.484;102.872;2022-12-18T03:55:23;20.80;42.90
18575;DHT22;9417;16.484;102.872;2022-12-18T03:57:36;20.90;43.50
18575;DHT22;9417;16.484;102.872;2022-12-18T03:59:46;21.00;43.10
18575;DHT22;9417;16.484;102.872;2022-12-18T04:02:01;21.00;42.30
18575;DHT22;9417;16.484;102.872;2022-12-18T04:04:11;21.10;42.50
18575;DHT22;9417;16.484;102.872;2022-12-18T04:06:20;21.10;42.70
18575;DHT22;9417;16.484;102.872;2022-12-18T04:08:29;21.20;42.40
18575;DHT22;9417;16.484;102.872;2022-12-18T04:10:39;21.30;42.80
18575;DHT22;9417;16.484;102.872;2022-12-18T04:12:47;21.40;42.40
18575;DHT22;9417;16.484;102.872;2022-12-18T04:14:56;21.50;42.00
18575;DHT22;9417;16.484;102.872;2022-12-18T04:17:04;21.60;42.10
18575;DHT22;9417;16.484;102.872;2022-12-18T04:19:11;21.70;41.80
18575;DHT22;9417;16.484;102.872;2022-12-18T04:21:20;21.70;41.60
18575;DHT22;9417;16.484;102.872;2022-12-18T04:23:28;21.70;41.70
18575;DHT22;9417;16.484;102.872;2022-12-18T04:25:35;21.80;42.00
18575;DHT22;9417;16.484;102.872;2022-12-18T04:27:46;21.80;40.60
18575;DHT22;9417;16.484;102.872;2022-12-18T04:29:55;21.90;41.60
18575;DHT22;9417;16.484;102.872;2022-12-18T04:32:02;21.90;40.10
18575;DHT22;9417;16.484;102.872;2022-12-18T04:34:10;21.80;40.50
18575;DHT22;9417;16.484;102.872;2022-12-18T04:36:23;21.80;41.30
18575;DHT22;9417;16.484;102.872;2022-12-18T04:38:31;21.80;41.40
18575;DHT22;9417;16.484;102.872;2022-12-18T04:40:42;21.80;41.30
18575;DHT22;9417;16.484;102.872;2022-12-18T04:42:57;21.70;41.20
18575;DHT22;9417;16.484;102.872;2022-12-18T04:45:07;21.70;41.90
18575;DHT22;9417;16.484;102.872;2022-12-18T04:47:15;21.70;41.40
18575;DHT22;9417;16.484;102.872;2022-12-18T04:49:22;21.60;41.10
18575;DHT22;9417;16.484;102.872;2022-12-18T04:51:29;21.60;41.90
18575;DHT22;9417;16.484;102.872;2022-12-18T04:53:37;21.60;41.40
18575;DHT22;9417;16.484;102.872;2022-12-18T04:55:44;21.60;41.00
18575;DHT22;9417;16.484;102.872;2022-12-18T04:57:51;21.70;41.80
18575;DHT22;9417;16.484;102.872;2022-12-18T04:59:59;21.60;40.40
18575;DHT22;9417;16.484;102.872;2022-12-18T05:02:08;21.50;40.90
18575;DHT22;9417;16.484;102.872;2022-12-18T05:04:15;21.50;41.00
18575;DHT22;9417;16.484;102.872;2022-12-18T05:06:22;21.50;41.30
18575;DHT22;9417;16.484;102.872;2022-12-18T05:08:30;21.50;42.20
18575;DHT22;9417;16.484;102.872;2022-12-18T05:10:37;21.60;42.10
18575;DHT22;9417;16.484;102.872;2022-12-18T05:12:44;21.70;42.10
18575;DHT22;9417;16.484;102.872;2022-12-18T05:15:07;21.80;40.70
18575;DHT22;9417;16.484;102.872;2022-12-18T05:17:17;21.90;40.50
18575;DHT22;9417;16.484;102.872;2022-12-18T05:19:23;22.10;41.60
18575;DHT22;9417;16.484;102.872;2022-12-18T05:21:31;22.20;41.10
18575;DHT22;9417;16.484;102.872;2022-12-18T05:23:38;22.30;40.00
18575;DHT22;9417;16.484;102.872;2022-12-18T05:25:50;22.30;40.30
18575;DHT22;9417;16.484;102.872;2022-12-18T05:27:57;22.30;40.00
18575;DHT22;9417;16.484;102.872;2022-12-18T05:30:05;22.30;40.10
18575;DHT22;9417;16.484;102.872;2022-12-18T05:32:12;22.30;40.30
18575;DHT22;9417;16.484;102.872;2022-12-18T05:34:21;22.40;39.80
18575;DHT22;9417;16.484;102.872;2022-12-18T05:36:28;22.50;40.30
18575;DHT22;9417;16.484;102.872;2022-12-18T05:38:36;22.60;40.60
18575;DHT22;9417;16.484;102.872;2022-12-18T05:40:44;22.60;40.60
18575;DHT22;9417;16.484;102.872;2022-12-18T05:42:51;22.70;40.20
18575;DHT22;9417;16.484;102.872;2022-12-18T05:44:58;22.80;40.10
18575;DHT22;9417;16.484;102.872;2022-12-18T05:47:05;22.90;39.70
18575;DHT22;9417;16.484;102.872;2022-12-18T05:49:12;22.90;39.40
18575;DHT22;9417;16.484;102.872;2022-12-18T05:51:22;22.90;39.70
18575;DHT22;9417;16.484;102.872;2022-12-18T05:53:29;22.90;39.90
18575;DHT22;9417;16.484;102.872;2022-12-18T05:55:37;23.00;40.00
18575;DHT22;9417;16.484;102.872;2022-12-18T05:57:44;23.00;39.90
18575;DHT22;9417;16.484;102.872;2022-12-18T05:59:51;23.00;39.60
18575;DHT22;9417;16.484;102.872;2022-12-18T06:01:58;23.10;39.70
18575;DHT22;9417;16.484;102.872;2022-12-18T06:04:06;23.10;39.50
18575;DHT22;9417;16.484;102.872;2022-12-18T06:06:15;23.20;39.40
18575;DHT22;9417;16.484;102.872;2022-12-18T06:08:23;23.20;38.80
18575;DHT22;9417;16.484;102.872;2022-12-18T06:10:31;23.20;39.20
18575;DHT22;9417;16.484;102.872;2022-12-18T06:12:38;23.20;39.40
18575;DHT22;9417;16.484;102.872;2022-12-18T06:14:45;23.30;38.70
18575;DHT22;9417;16.484;102.872;2022-12-18T06:16:52;23.20;38.40
18575;DHT22;9417;16.484;102.872;2022-12-18T06:19:00;23.10;37.80
18575;DHT22;9417;16.484;102.872;2022-12-18T06:21:07;23.10;37.70
18575;DHT22;9417;16.484;102.872;2022-12-18T06:23:14;23.00;38.10
18575;DHT22;9417;16.484;102.872;2022-12-18T06:25:23;23.00;38.40
18575;DHT22;9417;16.484;102.872;2022-12-18T06:27:30;23.00;37.90
18575;DHT22;9417;16.484;102.872;2022-12-18T06:29:38;23.10;38.80
18575;DHT22;9417;16.484;102.872;2022-12-18T06:31:45;23.20;37.80
18575;DHT22;9417;16.484;102.872;2022-12-18T06:33:52;23.10;36.80
18575;DHT22;9417;16.484;102.872;2022-12-18T06:36:01;23.10;37.60
18575;DHT22;9417;16.484;102.872;2022-12-18T06:38:08;23.10;38.00
18575;DHT22;9417;16.484;102.872;2022-12-18T06:40:16;23.20;38.50
18575;DHT22;9417;16.484;102.872;2022-12-18T06:42:25;23.30;38.00
18575;DHT22;9417;16.484;102.872;2022-12-18T06:44:32;23.20;37.70
18575;DHT22;9417;16.484;102.872;2022-12-18T06:46:39;23.20;37.90
18575;DHT22;9417;16.484;102.872;2022-12-18T06:48:48;23.20;38.10
18575;DHT22;9417;16.484;102.872;2022-12-18T06:50:56;23.30;38.20
18575;DHT22;9417;16.484;102.872;2022-12-18T06:53:03;23.30;37.20
18575;DHT22;9417;16.484;102.872;2022-12-18T06:55:10;23.30;38.20
18575;DHT22;9417;16.484;102.872;2022-12-18T06:57:18;23.40;38.80
18575;DHT22;9417;16.484;102.872;2022-12-18T06:59:27;23.50;38.70
18575;DHT22;9417;16.484;102.872;2022-12-18T07:01:34;23.50;38.90
18575;DHT22;9417;16.484;102.872;2022-12-18T07:03:42;23.50;38.30
18575;DHT22;9417;16.484;102.872;2022-12-18T07:05:49;23.60;38.20
18575;DHT22;9417;16.484;102.872;2022-12-18T07:07:56;23.50;38.10
18575;DHT22;9417;16.484;102.872;2022-12-18T07:10:04;23.40;37.60
18575;DHT22;9417;16.484;102.872;2022-12-18T07:12:12;23.40;38.10
18575;DHT22;9417;16.484;102.872;2022-12-18T07:14:19;23.50;37.90
18575;DHT22;9417;16.484;102.872;2022-12-18T07:16:28;23.40;37.40
18575;DHT22;9417;16.484;102.872;2022-12-18T07:18:35;23.40;37.20
18575;DHT22;9417;16.484;102.872;2022-12-18T07:20:42;23.40;37.90
18575;DHT22;9417;16.484;102.872;2022-12-18T07:22:50;23.50;38.50
18575;DHT22;9417;16.484;102.872;2022-12-18T07:24:59;23.50;38.10
18575;DHT22;9417;16.484;102.872;2022-12-18T07:27:06;23.60;38.40
18575;DHT22;9417;16.484;102.872;2022-12-18T07:29:13;23.60;38.40
18575;DHT22;9417;16.484;102.872;2022-12-18T07:31:21;23.70;38.60
18575;DHT22;9417;16.484;102.872;2022-12-18T07:33:30;23.60;38.50
18575;DHT22;9417;16.484;102.872;2022-12-18T07:35:38;23.70;38.30
18575;DHT22;9417;16.484;102.872;2022-12-18T07:37:45;23.60;37.90
18575;DHT22;9417;16.484;102.872;2022-12-18T07:39:52;23.50;38.10
18575;DHT22;9417;16.484;102.872;2022-12-18T07:41:59;23.50;38.00
18575;DHT22;9417;16.484;102.872;2022-12-18T07:44:24;23.50;38.10
18575;DHT22;9417;16.484;102.872;2022-12-18T07:46:31;23.50;38.40
18575;DHT22;9417;16.484;102.872;2022-12-18T07:48:40;23.60;38.90
18575;DHT22;9417;16.484;102.872;2022-12-18T07:50:52;23.60;38.60
18575;DHT22;9417;16.484;102.872;2022-12-18T07:52:59;23.60;38.80
18575;DHT22;9417;16.484;102.872;2022-12-18T07:55:08;23.60;38.50
18575;DHT22;9417;16.484;102.872;2022-12-18T07:57:16;23.60;38.60
18575;DHT22;9417;16.484;102.872;2022-12-18T07:59:42;23.60;38.60
18575;DHT22;9417;16.484;102.872;2022-12-18T08:01:50;23.50;38.90
18575;DHT22;9417;16.484;102.872;2022-12-18T08:03:59;23.50;39.20
18575;DHT22;9417;16.484;102.872;2022-12-18T08:06:08;23.50;39.20
18575;DHT22;9417;16.484;102.872;2022-12-18T08:08:15;23.50;39.90
18575;DHT22;9417;16.484;102.872;2022-12-18T08:10:23;23.50;39.90
18575;DHT22;9417;16.484;102.872;2022-12-18T08:12:30;23.50;39.00
18575;DHT22;9417;16.484;102.872;2022-12-18T08:14:37;23.40;39.30
18575;DHT22;9417;16.484;102.872;2022-12-18T08:16:45;23.40;39.30
18575;DHT22;9417;16.484;102.872;2022-12-18T08:18:53;23.40;39.50
18575;DHT22;9417;16.484;102.872;2022-12-18T08:21:10;23.40;39.10
18575;DHT22;9417;16.484;102.872;2022-12-18T08:23:18;23.30;38.80
18575;DHT22;9417;16.484;102.872;2022-12-18T08:25:25;23.30;38.90
18575;DHT22;9417;16.484;102.872;2022-12-18T08:27:32;23.20;39.20
18575;DHT22;9417;16.484;102.872;2022-12-18T08:29:39;23.20;39.50
18575;DHT22;9417;16.484;102.872;2022-12-18T08:31:47;23.20;40.30
18575;DHT22;9417;16.484;102.872;2022-12-18T08:33:55;23.20;39.50
18575;DHT22;9417;16.484;102.872;2022-12-18T08:36:03;23.10;39.50
18575;DHT22;9417;16.484;102.872;2022-12-18T08:38:12;23.10;40.00
18575;DHT22;9417;16.484;102.872;2022-12-18T08:40:19;23.10;40.10
18575;DHT22;9417;16.484;102.872;2022-12-18T08:42:27;23.10;40.70
18575;DHT22;9417;16.484;102.872;2022-12-18T08:44:50;23.10;40.20
18575;DHT22;9417;16.484;102.872;2022-12-18T08:46:57;23.00;39.70
18575;DHT22;9417;16.484;102.872;2022-12-18T08:49:05;23.00;40.00
18575;DHT22;9417;16.484;102.872;2022-12-18T08:51:13;23.00;40.80
18575;DHT22;9417;16.484;102.872;2022-12-18T08:53:22;23.00;40.70
18575;DHT22;9417;16.484;102.872;2022-12-18T08:55:35;23.00;40.50
18575;DHT22;9417;16.484;102.872;2022-12-18T08:57:42;23.00;41.10
18575;DHT22;9417;16.484;102.872;2022-12-18T08:59:49;23.00;41.30
18575;DHT22;9417;16.484;102.872;2022-12-18T09:01:56;22.90;41.00
18575;DHT22;9417;16.484;102.872;2022-12-18T09:04:04;23.00;41.10
18575;DHT22;9417;16.484;102.872;2022-12-18T09:06:14;22.90;40.70
18575;DHT22;9417;16.484;102.872;2022-12-18T09:08:23;22.90;41.20
18575;DHT22;9417;16.484;102.872;2022-12-18T09:10:30;22.90;41.00
18575;DHT22;9417;16.484;102.872;2022-12-18T09:12:45;22.80;40.30
18575;DHT22;9417;16.484;102.872;2022-12-18T09:14:53;22.80;41.00
18575;DHT22;9417;16.484;102.872;2022-12-18T09:17:00;22.80;41.00
18575;DHT22;9417;16.484;102.872;2022-12-18T09:19:08;22.70;41.30
18575;DHT22;9417;16.484;102.872;2022-12-18T09:21:16;22.70;41.20
18575;DHT22;9417;16.484;102.872;2022-12-18T09:23:26;22.70;40.60
18575;DHT22;9417;16.484;102.872;2022-12-18T09:25:33;22.60;41.00
18575;DHT22;9417;16.484;102.872;2022-12-18T09:27:41;22.60;41.20
18575;DHT22;9417;16.484;102.872;2022-12-18T09:29:48;22.60;41.50
18575;DHT22;9417;16.484;102.872;2022-12-18T09:31:56;22.60;41.90
18575;DHT22;9417;16.484;102.872;2022-12-18T09:34:03;22.60;41.90
18575;DHT22;9417;16.484;102.872;2022-12-18T09:36:12;22.60;41.70
18575;DHT22;9417;16.484;102.872;2022-12-18T09:38:20;22.50;42.50
18575;DHT22;9417;16.484;102.872;2022-12-18T09:40:35;22.50;42.50
18575;DHT22;9417;16.484;102.872;2022-12-18T09:42:46;22.50;42.50
18575;DHT22;9417;16.484;102.872;2022-12-18T09:44:55;22.50;42.90
18575;DHT22;9417;16.484;102.872;2022-12-18T09:47:08;22.40;42.50
18575;DHT22;9417;16.484;102.872;2022-12-18T09:49:19;22.40;42.10
18575;DHT22;9417;16.484;102.872;2022-12-18T09:51:30;22.40;42.10
18575;DHT22;9417;16.484;102.872;2022-12-18T09:53:40;22.40;42.20
18575;DHT22;9417;16.484;102.872;2022-12-18T09:55:51;22.30;42.50
18575;DHT22;9417;16.484;102.872;2022-12-18T09:58:00;22.30;43.00
18575;DHT22;9417;16.484;102.872;2022-12-18T10:00:16;22.20;43.30
18575;DHT22;9417;16.484;102.872;2022-12-18T10:02:26;22.20;43.50
18575;DHT22;9417;16.484;102.872;2022-12-18T10:04:33;22.10;43.20
18575;DHT22;9417;16.484;102.872;2022-12-18T10:06:45;22.10;43.80
18575;DHT22;9417;16.484;102.872;2022-12-18T10:08:56;22.10;43.90
18575;DHT22;9417;16.484;102.872;2022-12-18T10:11:21;22.00;44.20
18575;DHT22;9417;16.484;102.872;2022-12-18T10:13:33;22.00;43.90
18575;DHT22;9417;16.484;102.872;2022-12-18T10:15:51;22.00;44.10
18575;DHT22;9417;16.484;102.872;2022-12-18T10:18:06;21.90;43.90
18575;DHT22;9417;16.484;102.872;2022-12-18T10:20:32;21.90;44.10
18575;DHT22;9417;16.484;102.872;2022-12-18T10:22:48;21.90;44.30
18575;DHT22;9417;16.484;102.872;2022-12-18T10:25:01;21.80;44.30
18575;DHT22;9417;16.484;102.872;2022-12-18T10:27:15;21.80;44.50
18575;DHT22;9417;16.484;102.872;2022-12-18T10:29:24;21.80;44.80
18575;DHT22;9417;16.484;102.872;2022-12-18T10:31:32;21.70;45.10
18575;DHT22;9417;16.484;102.872;2022-12-18T10:33:39;21.60;45.30
18575;DHT22;9417;16.484;102.872;2022-12-18T10:35:48;21.60;45.60
18575;DHT22;9417;16.484;102.872;2022-12-18T10:38:07;21.60;45.90
18575;DHT22;9417;16.484;102.872;2022-12-18T10:40:26;21.60;46.30
18575;DHT22;9417;16.484;102.872;2022-12-18T10:42:36;21.50;46.60
18575;DHT22;9417;16.484;102.872;2022-12-18T10:44:43;21.40;46.80
18575;DHT22;9417;16.484;102.872;2022-12-18T10:46:53;21.40;47.00
18575;DHT22;9417;16.484;102.872;2022-12-18T10:49:00;21.30;47.00
18575;DHT22;9417;16.484;102.872;2022-12-18T10:51:07;21.20;47.20
18575;DHT22;9417;16.484;102.872;2022-12-18T10:53:22;21.20;47.30
18575;DHT22;9417;16.484;102.872;2022-12-18T10:55:33;21.10;47.80
18575;DHT22;9417;16.484;102.872;2022-12-18T10:57:43;21.10;47.80
18575;DHT22;9417;16.484;102.872;2022-12-18T10:59:55;21.10;48.40
18575;DHT22;9417;16.484;102.872;2022-12-18T11:02:25;21.00;48.30
18575;DHT22;9417;16.484;102.872;2022-12-18T11:04:33;21.00;48.70
18575;DHT22;9417;16.484;102.872;2022-12-18T11:06:56;20.90;48.60
18575;DHT22;9417;16.484;102.872;2022-12-18T11:09:05;20.90;48.80
18575;DHT22;9417;16.484;102.872;2022-12-18T11:11:21;20.80;49.00
18575;DHT22;9417;16.484;102.872;2022-12-18T11:13:30;20.80;49.00
18575;DHT22;9417;16.484;102.872;2022-12-18T11:15:40;20.80;48.90
18575;DHT22;9417;16.484;102.872;2022-12-18T11:17:49;20.70;49.40
18575;DHT22;9417;16.484;102.872;2022-12-18T11:19:58;20.70;50.40
18575;DHT22;9417;16.484;102.872;2022-12-18T11:22:19;20.70;50.50
18575;DHT22;9417;16.484;102.872;2022-12-18T11:24:31;20.70;51.30
18575;DHT22;9417;16.484;102.872;2022-12-18T11:26:38;20.60;52.50
18575;DHT22;9417;16.484;102.872;2022-12-18T11:28:53;20.50;52.70
18575;DHT22;9417;16.484;102.872;2022-12-18T11:31:24;20.50;53.00
18575;DHT22;9417;16.484;102.872;2022-12-18T11:33:32;20.40;51.80
18575;DHT22;9417;16.484;102.872;2022-12-18T11:35:44;20.30;51.50
18575;DHT22;9417;16.484;102.872;2022-12-18T11:37:59;20.30;51.40
18575;DHT22;9417;16.484;102.872;2022-12-18T11:40:13;20.20;51.40
18575;DHT22;9417;16.484;102.872;2022-12-18T11:42:25;20.20;51.50
18575;DHT22;9417;16.484;102.872;2022-12-18T11:44:42;20.20;51.60
18575;DHT22;9417;16.484;102.872;2022-12-18T11:46:55;20.20;51.90
18575;DHT22;9417;16.484;102.872;2022-12-18T11:49:07;20.10;52.40
18575;DHT22;9417;16.484;102.872;2022-12-18T11:51:22;20.20;52.00
18575;DHT22;9417;16.484;102.872;2022-12-18T11:53:32;20.20;51.80
18575;DHT22;9417;16.484;102.872;2022-12-18T11:55:50;20.20;51.90
18575;DHT22;9417;16.484;102.872;2022-12-18T11:58:05;20.20;51.70
18575;DHT22;9417;16.484;102.872;2022-12-18T12:00:19;20.20;51.70
18575;DHT22;9417;16.484;102.872;2022-12-18T12:02:41;20.20;51.60
18575;DHT22;9417;16.484;102.872;2022-12-18T12:05:05;20.20;51.90
18575;DHT22;9417;16.484;102.872;2022-12-18T12:07:27;20.10;52.00
18575;DHT22;9417;16.484;102.872;2022-12-18T12:09:37;20.10;52.20
18575;DHT22;9417;16.484;102.872;2022-12-18T12:11:55;20.10;52.50
18575;DHT22;9417;16.484;102.872;2022-12-18T12:14:15;20.10;52.60
18575;DHT22;9417;16.484;102.872;2022-12-18T12:16:31;20.10;52.90
18575;DHT22;9417;16.484;102.872;2022-12-18T12:18:55;20.10;53.20
18575;DHT22;9417;16.484;102.872;2022-12-18T12:21:12;20.00;53.00
18575;DHT22;9417;16.484;102.872;2022-12-18T12:23:28;19.90;53.30
18575;DHT22;9417;16.484;102.872;2022-12-18T12:25:41;19.90;53.50
18575;DHT22;9417;16.484;102.872;2022-12-18T12:27:55;19.80;53.40
18575;DHT22;9417;16.484;102.872;2022-12-18T12:30:08;19.80;53.60
18575;DHT22;9417;16.484;102.872;2022-12-18T12:32:26;19.70;54.10
18575;DHT22;9417;16.484;102.872;2022-12-18T12:34:43;19.70;54.30
18575;DHT22;9417;16.484;102.872;2022-12-18T12:37:11;19.60;54.40
18575;DHT22;9417;16.484;102.872;2022-12-18T12:39:25;19.60;54.60
18575;DHT22;9417;16.484;102.872;2022-12-18T12:41:34;19.50;54.50
18575;DHT22;9417;16.484;102.872;2022-12-18T12:44:01;19.50;54.90
18575;DHT22;9417;16.484;102.872;2022-12-18T12:46:11;19.40;55.30
18575;DHT22;9417;16.484;102.872;2022-12-18T12:48:34;19.50;55.40
18575;DHT22;9417;16.484;102.872;2022-12-18T12:50:42;19.50;59.40
18575;DHT22;9417;16.484;102.872;2022-12-18T12:52:53;19.50;60.00
18575;DHT22;9417;16.484;102.872;2022-12-18T12:55:02;19.40;60.60
18575;DHT22;9417;16.484;102.872;2022-12-18T12:57:24;19.40;59.00
18575;DHT22;9417;16.484;102.872;2022-12-18T12:59:40;19.40;58.10
18575;DHT22;9417;16.484;102.872;2022-12-18T13:01:57;19.30;58.20
18575;DHT22;9417;16.484;102.872;2022-12-18T13:04:18;19.30;61.00
18575;DHT22;9417;16.484;102.872;2022-12-18T13:06:35;19.30;62.60
18575;DHT22;9417;16.484;102.872;2022-12-18T13:08:56;19.20;63.40
18575;DHT22;9417;16.484;102.872;2022-12-18T13:11:03;19.20;64.20
18575;DHT22;9417;16.484;102.872;2022-12-18T13:13:49;19.20;63.30
18575;DHT22;9417;16.484;102.872;2022-12-18T13:16:05;19.10;61.60
18575;DHT22;9417;16.484;102.872;2022-12-18T13:18:19;19.00;62.20
18575;DHT22;9417;16.484;102.872;2022-12-18T13:20:33;19.00;63.50
18575;DHT22;9417;16.484;102.872;2022-12-18T13:22:44;19.00;64.10
18575;DHT22;9417;16.484;102.872;2022-12-18T13:24:52;18.90;63.90
18575;DHT22;9417;16.484;102.872;2022-12-18T13:27:00;18.90;63.20
18575;DHT22;9417;16.484;102.872;2022-12-18T13:29:07;18.90;63.20
18575;DHT22;9417;16.484;102.872;2022-12-18T13:31:15;18.90;63.80
18575;DHT22;9417;16.484;102.872;2022-12-18T13:33:43;18.80;65.30